Time;durP1;ratioP1;P1;durP2;ratioP2;P2;SDS_P1;SDS_P2;PMS_P1;PMS_P2;Temp;Humidity;BMP_temperature;BMP_pressure;BME280_temperature;BME280_humidity;BME280_pressure;Samples;Min_cycle;Max_cycle;Signal;HPM_P1;HPM_P2
2023/04/03 00:00:56;;;;;;;7.85;5.05;;;;;;;0.65;96.64;102873.38;4998774;28;20033;-83
2023/04/03 00:03:21;;;;;;;8.95;4.82;;;;;;;0.58;96.82;102873.38;4985290;28;20035;-82
2023/04/03 00:05:47;;;;;;;6.03;4.78;;;;;;;0.58;96.34;102881.41;4978300;28;20041;-82
2023/04/03 00:08:12;;;;;;;8.65;5.15;;;;;;;0.55;96.85;102876.91;4985378;28;20039;-83
2023/04/03 00:10:38;;;;;;;8.35;5.30;;;;;;;0.58;96.14;102884.06;4984693;28;20054;-82
2023/04/03 00:13:05;;;;;;;10.35;5.82;;;;;;;0.59;96.95;102883.19;4985307;28;20058;-82
2023/04/03 00:15:30;;;;;;;8.98;6.35;;;;;;;0.53;98.20;102872.47;4978139;28;20045;-83
2023/04/03 00:17:56;;;;;;;8.75;5.63;;;;;;;0.47;98.08;102876.91;4982907;28;20038;-82
2023/04/03 00:20:22;;;;;;;8.90;6.10;;;;;;;0.53;98.78;102896.56;4978387;28;20121;-82
2023/04/03 00:22:48;;;;;;;7.57;6.05;;;;;;;0.51;98.22;102891.19;4988110;28;20460;-83
2023/04/03 00:25:14;;;;;;;11.73;5.97;;;;;;;0.52;98.26;102893.00;5006113;28;20467;-82
2023/04/03 00:27:40;;;;;;;13.00;6.20;;;;;;;0.54;98.55;102898.34;4990868;28;20054;-81
2023/04/03 00:30:08;;;;;;;8.48;5.70;;;;;;;0.50;98.35;102898.34;5001671;28;20088;-82
2023/04/03 00:32:34;;;;;;;11.38;5.63;;;;;;;0.45;97.76;102902.78;4988689;28;20454;-82
2023/04/03 00:34:59;;;;;;;7.78;5.05;;;;;;;0.40;96.81;102903.66;4987862;28;20165;-82
2023/04/03 00:37:25;;;;;;;6.88;5.03;;;;;;;0.36;96.42;102891.16;4971590;28;20039;-82
2023/04/03 00:39:50;;;;;;;7.57;5.10;;;;;;;0.33;96.28;102894.75;4987261;28;20093;-82
2023/04/03 00:42:16;;;;;;;7.70;4.70;;;;;;;0.34;97.23;102903.66;4987491;28;20053;-82
2023/04/03 00:44:41;;;;;;;6.95;4.85;;;;;;;0.31;97.48;102899.16;5002853;28;20379;-82
2023/04/03 00:47:10;;;;;;;8.07;4.78;;;;;;;0.31;97.58;102906.31;4998542;28;20030;-81
2023/04/03 00:49:36;;;;;;;7.43;5.22;;;;;;;0.26;97.98;102917.00;5004455;28;20477;-82
2023/04/03 00:52:02;;;;;;;9.52;6.57;;;;;;;0.22;98.60;102910.75;4987960;28;20108;-82
2023/04/03 00:54:28;;;;;;;11.68;6.07;;;;;;;0.18;99.06;102910.72;4987624;28;20034;-82
2023/04/03 00:56:57;;;;;;;7.82;5.93;;;;;;;0.17;99.04;102917.84;4972355;28;20097;-82
2023/04/03 00:59:30;;;;;;;7.30;5.45;;;;;;;0.15;99.78;102913.41;5009519;28;20125;-82
2023/04/03 01:01:56;;;;;;;9.48;5.88;;;;;;;0.13;99.42;102902.69;4979597;28;20069;-82
2023/04/03 01:04:28;;;;;;;12.20;6.47;;;;;;;0.18;99.21;102918.75;4973992;28;20478;-82
2023/04/03 01:06:59;;;;;;;8.57;4.78;;;;;;;0.18;98.31;102919.63;4971783;28;20357;-82
2023/04/03 01:09:26;;;;;;;8.77;5.30;;;;;;;0.10;98.43;102905.34;4968966;28;20031;-82
2023/04/03 01:11:51;;;;;;;7.78;5.30;;;;;;;0.10;98.85;102905.34;4990786;28;20032;-82
2023/04/03 01:14:16;;;;;;;10.52;5.53;;;;;;;0.06;98.66;102906.22;4990378;28;20034;-82
2023/04/03 01:16:42;;;;;;;8.05;5.80;;;;;;;0.07;98.59;102910.69;4995705;28;20108;-82
2023/04/03 01:19:15;;;;;;;8.30;5.32;;;;;;;0.05;98.61;102909.81;5010445;28;20034;-82
2023/04/03 01:22:23;;;;;;;11.63;5.57;;;;;;;0.09;99.07;102916.94;4991157;28;20414;-81
2023/04/03 01:24:51;;;;;;;9.40;6.10;;;;;;;0.09;99.20;102916.03;4990432;28;20069;-82
2023/04/03 01:27:17;;;;;;;8.70;6.32;;;;;;;0.09;99.17;102910.69;4990314;28;20042;-82
2023/04/03 01:29:43;;;;;;;9.00;5.13;;;;;;;0.09;99.69;102919.59;4989502;28;20038;-82
2023/04/03 01:32:08;;;;;;;8.50;5.93;;;;;;;0.07;99.89;102918.72;4989480;28;20054;-83
2023/04/03 01:34:34;;;;;;;8.40;5.78;;;;;;;0.06;100.00;102924.97;4990796;28;20073;-82
2023/04/03 01:37:00;;;;;;;9.63;6.00;;;;;;;0.03;100.00;102924.94;4969367;28;20093;-82
2023/04/03 01:39:25;;;;;;;8.85;6.55;;;;;;;0.03;100.00;102916.91;4972342;28;20035;-82
2023/04/03 01:41:51;;;;;;;14.07;7.95;;;;;;;-0.02;100.00;102907.97;4971884;28;20023;-82
2023/04/03 01:44:25;;;;;;;9.45;6.80;;;;;;;0.04;100.00;102920.47;4986760;28;20062;-82
2023/04/03 01:46:51;;;;;;;11.00;6.90;;;;;;;0.03;100.00;102914.22;4998769;28;20474;-82
2023/04/03 01:49:17;;;;;;;13.07;6.95;;;;;;;0.03;100.00;102908.88;4990350;28;20030;-82
2023/04/03 01:51:42;;;;;;;11.60;6.95;;;;;;;0.06;100.00;102914.25;4990876;28;20462;-82
2023/04/03 01:54:08;;;;;;;9.02;6.20;;;;;;;0.05;100.00;102915.16;5009839;28;20104;-81
2023/04/03 01:56:33;;;;;;;9.73;7.05;;;;;;;0.09;100.00;102924.06;4999099;28;20030;-81
2023/04/03 01:58:59;;;;;;;10.85;6.28;;;;;;;0.03;100.00;102913.34;4989493;28;20599;-82
2023/04/03 02:01:25;;;;;;;15.73;6.60;;;;;;;0.04;100.00;102916.00;4987319;28;20030;-82
2023/04/03 02:03:51;;;;;;;12.23;6.68;;;;;;;0.01;100.00;102920.47;5009494;28;20112;-82
2023/04/03 02:06:16;;;;;;;8.95;5.75;;;;;;;-0.01;100.00;102920.44;4993459;28;20097;-82
2023/04/03 02:08:41;;;;;;;11.35;6.22;;;;;;;-0.04;100.00;102926.69;4990610;28;20050;-82
2023/04/03 02:11:07;;;;;;;11.65;6.68;;;;;;;-0.07;100.00;102910.63;4954238;28;20049;-82
2023/04/03 02:13:32;;;;;;;12.30;7.13;;;;;;;-0.06;100.00;102919.53;4971297;28;20042;-82
2023/04/03 02:15:58;;;;;;;9.75;6.20;;;;;;;-0.08;100.00;102922.22;4993432;28;20030;-81
2023/04/03 02:18:24;;;;;;;10.45;7.13;;;;;;;-0.09;100.00;102917.75;4991427;28;20125;-82
2023/04/03 02:20:50;;;;;;;11.38;6.63;;;;;;;-0.10;100.00;102912.38;5001944;28;20390;-82
2023/04/03 02:23:15;;;;;;;11.25;6.85;;;;;;;-0.08;100.00;102921.31;5009938;28;20038;-82
2023/04/03 02:25:40;;;;;;;9.65;6.65;;;;;;;-0.11;100.00;102924.88;5008914;28;20037;-81
2023/04/03 02:28:08;;;;;;;9.52;6.70;;;;;;;-0.10;100.00;102926.66;5009891;28;20434;-82
2023/04/03 02:30:33;;;;;;;11.07;6.78;;;;;;;-0.11;100.00;102926.66;5007761;28;20710;-81
2023/04/03 02:32:59;;;;;;;11.25;6.78;;;;;;;-0.12;100.00;102927.53;4993747;28;20045;-82
2023/04/03 02:35:25;;;;;;;15.02;5.75;;;;;;;-0.13;100.00;102929.31;4990381;28;20035;-82
2023/04/03 02:37:51;;;;;;;11.52;6.45;;;;;;;-0.14;100.00;102932.91;4984527;28;20053;-82
2023/04/03 02:40:17;;;;;;;12.93;6.35;;;;;;;-0.14;100.00;102940.00;4970308;28;20038;-81
2023/04/03 02:42:42;;;;;;;6.78;5.10;;;;;;;-0.13;100.00;102941.81;4969078;28;20058;-81
2023/04/03 02:45:08;;;;;;;8.82;6.05;;;;;;;-0.18;100.00;102928.41;4972147;28;20062;-82
2023/04/03 02:47:33;;;;;;;14.00;6.07;;;;;;;-0.17;100.00;102951.59;4975079;28;20085;-82
2023/04/03 02:49:59;;;;;;;10.13;6.03;;;;;;;-0.18;100.00;102938.22;4991073;28;20041;-81
2023/04/03 02:52:24;;;;;;;11.40;5.90;;;;;;;-0.20;100.00;102942.66;4993461;28;20528;-82
2023/04/03 02:54:52;;;;;;;7.97;5.43;;;;;;;-0.22;100.00;102942.66;4990763;28;20043;-81
2023/04/03 02:57:19;;;;;;;8.10;5.47;;;;;;;-0.22;100.00;102939.97;4978105;28;20446;-82
2023/04/03 02:59:44;;;;;;;12.32;5.70;;;;;;;-0.24;100.00;102952.44;4956342;28;20062;-81
2023/04/03 03:02:11;;;;;;;7.00;4.88;;;;;;;-0.20;100.00;102945.31;4973206;28;20034;-82
2023/04/03 03:04:37;;;;;;;9.25;5.72;;;;;;;-0.23;100.00;102938.19;4990165;28;20034;-81
2023/04/03 03:07:02;;;;;;;6.80;4.75;;;;;;;-0.19;100.00;102944.44;4986245;28;20117;-81
2023/04/03 03:09:29;;;;;;;9.60;4.90;;;;;;;-0.21;100.00;102944.44;4970781;28;20376;-81
2023/04/03 03:11:55;;;;;;;7.55;5.22;;;;;;;-0.19;100.00;102939.97;4974642;28;20419;-81
2023/04/03 03:14:21;;;;;;;8.63;4.65;;;;;;;-0.22;100.00;102942.66;4971274;28;20510;-81
2023/04/03 03:16:47;;;;;;;9.95;5.25;;;;;;;-0.28;100.00;102937.25;4986079;28;20034;-81
2023/04/03 03:19:12;;;;;;;10.48;4.78;;;;;;;-0.28;100.00;102930.16;4970363;28;20122;-82
2023/04/03 03:21:37;;;;;;;6.47;5.00;;;;;;;-0.23;100.00;102931.91;4988664;28;20026;-81
2023/04/03 03:24:03;;;;;;;8.85;4.32;;;;;;;-0.22;100.00;102937.31;4974011;28;20521;-81
2023/04/03 03:26:29;;;;;;;6.40;4.38;;;;;;;-0.20;100.00;102935.50;4992502;28;20030;-81
2023/04/03 03:28:54;;;;;;;8.38;4.30;;;;;;;-0.15;100.00;102935.53;4992158;28;20120;-81
2023/04/03 03:31:20;;;;;;;5.28;3.65;;;;;;;-0.15;100.00;102938.22;4988970;28;20026;-81
2023/04/03 03:33:45;;;;;;;7.13;3.97;;;;;;;-0.12;100.00;102944.50;4989719;28;20482;-81
2023/04/03 03:36:11;;;;;;;5.53;3.85;;;;;;;-0.10;100.00;102950.72;5002641;28;20045;-81
2023/04/03 03:38:37;;;;;;;8.82;4.25;;;;;;;-0.09;100.00;102952.53;4992813;28;20095;-81
2023/04/03 03:41:02;;;;;;;5.13;3.80;;;;;;;-0.05;100.00;102956.09;4992243;28;20517;-81
2023/04/03 03:43:29;;;;;;;8.05;3.80;;;;;;;-0.03;100.00;102955.25;5006964;28;20033;-81
2023/04/03 03:45:55;;;;;;;8.43;3.90;;;;;;;0.02;100.00;102959.72;4978267;28;20034;-81
2023/04/03 03:48:23;;;;;;;8.88;3.33;;;;;;;0.05;100.00;102960.66;4972231;28;20106;-80
2023/04/03 03:50:49;;;;;;;8.60;4.13;;;;;;;0.03;100.00;102965.06;4972047;28;20030;-80
2023/04/03 03:53:15;;;;;;;5.38;3.75;;;;;;;0.02;100.00;102965.97;4988583;28;20073;-80
2023/04/03 03:55:41;;;;;;;8.68;4.00;;;;;;;-0.04;100.00;102958.81;4988362;28;20069;-81
2023/04/03 03:58:07;;;;;;;7.93;3.50;;;;;;;0.02;100.00;102973.09;4988995;28;20034;-80
2023/04/03 04:00:35;;;;;;;8.07;3.92;;;;;;;-0.01;100.00;102966.81;4986740;28;20180;-80
2023/04/03 04:03:01;;;;;;;6.97;2.92;;;;;;;-0.01;100.00;102969.50;4971331;28;20120;-80
2023/04/03 04:05:28;;;;;;;4.78;3.58;;;;;;;-0.04;100.00;102966.84;4986901;28;20045;-80
2023/04/03 04:07:54;;;;;;;9.15;3.40;;;;;;;-0.06;100.00;102968.59;4987858;28;20034;-80
2023/04/03 04:10:20;;;;;;;6.25;3.25;;;;;;;-0.05;100.00;102970.41;4986247;28;20402;-80
2023/04/03 04:12:45;;;;;;;7.22;3.03;;;;;;;-0.05;100.00;102972.16;4971180;28;20033;-80
2023/04/03 04:15:12;;;;;;;6.25;3.45;;;;;;;-0.06;100.00;102975.72;4983590;28;20118;-80
2023/04/03 04:17:38;;;;;;;4.68;3.20;;;;;;;-0.12;99.78;102975.69;4992787;28;20046;-79
2023/04/03 04:20:06;;;;;;;10.40;3.40;;;;;;;-0.16;99.72;102974.78;4992164;28;20040;-80
2023/04/03 04:22:32;;;;;;;10.68;3.20;;;;;;;-0.19;100.00;102976.53;5008964;28;20417;-80
2023/04/03 04:24:58;;;;;;;5.03;2.72;;;;;;;-0.22;99.53;102969.41;4990670;28;20034;-80
2023/04/03 04:27:24;;;;;;;6.97;3.10;;;;;;;-0.21;100.00;102972.97;5001211;28;20034;-81
2023/04/03 04:29:49;;;;;;;5.45;3.30;;;;;;;-0.24;99.87;102973.81;4987708;28;20034;-80
2023/04/03 04:32:15;;;;;;;4.88;3.03;;;;;;;-0.25;100.00;102974.72;4998606;28;20029;-80
2023/04/03 04:34:41;;;;;;;7.03;3.17;;;;;;;-0.24;100.00;102972.94;5008081;28;20517;-80
2023/04/03 04:37:06;;;;;;;9.18;3.75;;;;;;;-0.23;100.00;102974.72;4992092;28;20398;-80
2023/04/03 04:39:32;;;;;;;4.45;2.75;;;;;;;-0.24;99.96;102976.50;4990755;28;20445;-80
2023/04/03 04:41:58;;;;;;;6.45;2.83;;;;;;;-0.26;100.00;102967.59;4991938;28;20038;-80
2023/04/03 04:44:26;;;;;;;7.93;3.17;;;;;;;-0.26;100.00;102964.91;4974345;28;20026;-80
2023/04/03 04:46:51;;;;;;;6.13;3.35;;;;;;;-0.29;100.00;102968.44;4995193;28;20037;-80
2023/04/03 04:49:17;;;;;;;5.30;2.80;;;;;;;-0.23;100.00;102972.97;5010730;28;20034;-80
2023/04/03 04:51:42;;;;;;;7.45;3.20;;;;;;;-0.23;100.00;102988.09;5010063;28;20042;-80
2023/04/03 04:54:08;;;;;;;6.05;2.70;;;;;;;-0.22;100.00;102987.22;4994405;28;20116;-80
2023/04/03 04:56:34;;;;;;;5.90;3.20;;;;;;;-0.21;100.00;102989.91;5004331;28;20401;-80
2023/04/03 04:58:59;;;;;;;6.28;2.65;;;;;;;-0.18;100.00;102986.38;4989656;28;20038;-80
2023/04/03 05:01:25;;;;;;;6.82;2.58;;;;;;;-0.16;100.00;102992.59;5001715;28;20034;-80
2023/04/03 05:03:58;;;;;;;;;;;;;;;-0.10;99.41;103000.66;4992575;28;20038;-80
2023/04/03 05:06:24;;;;;;;8.23;2.83;;;;;;;-0.14;99.45;103001.53;4989096;28;19917;-80
2023/04/03 05:08:50;;;;;;;4.38;2.72;;;;;;;-0.12;99.83;102989.06;5001877;28;20037;-80
2023/04/03 05:11:16;;;;;;;15.27;3.78;;;;;;;-0.14;99.39;102991.75;4990585;28;20383;-80
2023/04/03 05:13:43;;;;;;;7.80;2.60;;;;;;;-0.10;99.37;103006.00;4989502;28;20028;-80
2023/04/03 05:16:08;;;;;;;6.25;2.72;;;;;;;-0.13;99.45;103000.66;4972515;28;20039;-80
2023/04/03 05:18:35;;;;;;;3.85;2.67;;;;;;;-0.11;99.37;102998.88;5009949;28;20034;-80
2023/04/03 05:21:05;;;;;;;6.03;2.70;;;;;;;-0.12;99.45;103000.66;4980967;28;20080;-80
2023/04/03 05:23:30;;;;;;;4.82;2.90;;;;;;;-0.10;99.61;103003.34;4990542;28;20027;-80
2023/04/03 05:25:58;;;;;;;8.13;2.90;;;;;;;-0.02;99.11;103001.63;4990361;28;20386;-80
2023/04/03 05:28:24;;;;;;;5.10;2.47;;;;;;;0.07;99.38;103007.03;4974398;28;20504;-80
2023/04/03 05:30:55;;;;;;;9.48;2.90;;;;;;;0.25;99.12;102996.41;4972664;28;20050;-80
2023/04/03 05:33:21;;;;;;;3.72;2.13;;;;;;;0.52;98.38;103010.81;4991018;28;20448;-80
2023/04/03 05:35:50;;;;;;;3.30;2.53;;;;;;;0.68;97.08;103001.03;5008404;28;20038;-80
2023/04/03 05:38:20;;;;;;;8.02;2.78;;;;;;;0.68;96.19;103015.34;5011423;28;20065;-80
2023/04/03 05:40:46;;;;;;;4.43;2.30;;;;;;;0.74;96.41;103014.44;5009527;28;20053;-79
2023/04/03 05:43:11;;;;;;;5.25;2.25;;;;;;;1.15;95.74;103011.88;4991806;28;20030;-80
2023/04/03 05:45:40;;;;;;;4.45;1.77;;;;;;;1.68;93.49;103013.69;4992779;28;20034;-80
2023/04/03 05:48:05;;;;;;;4.05;2.28;;;;;;;1.82;91.78;103024.44;4974070;28;20037;-80
2023/04/03 05:50:31;;;;;;;10.40;2.83;;;;;;;2.03;89.98;103013.63;4982586;28;20031;-80
2023/04/03 05:52:58;;;;;;;2.88;2.10;;;;;;;2.09;88.99;103014.50;4972923;28;20052;-80
2023/04/03 05:55:26;;;;;;;3.97;2.45;;;;;;;2.16;89.88;103027.03;4973000;28;20134;-80
2023/04/03 05:57:51;;;;;;;5.07;2.33;;;;;;;2.70;87.82;103027.72;4973424;28;20116;-81
2023/04/03 06:00:17;;;;;;;4.63;2.17;;;;;;;3.23;85.92;103024.75;4972889;28;20042;-81
2023/04/03 06:02:49;;;;;;;5.60;2.22;;;;;;;3.32;84.78;103016.63;4988788;28;20041;-81
2023/04/03 06:05:19;;;;;;;5.82;2.70;;;;;;;3.23;83.99;103023.88;4974278;28;20038;-80
2023/04/03 06:07:45;;;;;;;7.53;1.90;;;;;;;3.04;85.02;103021.28;4990192;28;20383;-80
2023/04/03 06:10:12;;;;;;;4.25;2.08;;;;;;;2.83;85.24;103033.94;4990111;28;20022;-80
2023/04/03 06:12:37;;;;;;;4.97;1.85;;;;;;;2.54;84.21;103027.81;4991128;28;20088;-80
2023/04/03 06:15:03;;;;;;;10.80;2.33;;;;;;;2.22;85.73;103035.97;4976607;28;20405;-80
2023/04/03 06:17:29;;;;;;;4.65;2.00;;;;;;;2.02;87.24;103043.19;4986002;28;20054;-80
2023/04/03 06:19:55;;;;;;;7.63;2.65;;;;;;;1.90;87.14;103038.72;4972980;28;20446;-80
2023/04/03 06:22:21;;;;;;;3.72;2.25;;;;;;;2.19;86.15;103046.75;4974040;28;20022;-80
2023/04/03 06:24:46;;;;;;;4.95;1.98;;;;;;;2.71;85.07;103040.28;4987566;28;20458;-80
2023/04/03 06:27:12;;;;;;;6.40;2.20;;;;;;;3.18;83.46;103034.66;4987111;28;20493;-80
2023/04/03 06:29:37;;;;;;;5.45;2.47;;;;;;;3.59;81.87;103041.53;4980901;28;20026;-80
2023/04/03 06:32:02;;;;;;;4.70;2.08;;;;;;;3.99;79.35;103044.75;4990583;28;20038;-80
2023/04/03 06:34:28;;;;;;;7.43;2.10;;;;;;;4.06;78.63;103050.97;5005394;28;20521;-80
2023/04/03 06:36:53;;;;;;;6.78;2.08;;;;;;;3.86;79.45;103048.44;4985262;28;20038;-80
2023/04/03 06:39:22;;;;;;;6.78;2.67;;;;;;;3.70;79.55;103057.59;4989117;28;20033;-80
2023/04/03 06:41:48;;;;;;;5.53;1.63;;;;;;;3.28;80.80;103054.31;4989939;28;20038;-80
2023/04/03 06:44:15;;;;;;;5.63;2.30;;;;;;;3.13;81.86;103052.63;4986009;28;20045;-80
2023/04/03 06:46:41;;;;;;;7.15;2.47;;;;;;;3.38;79.98;103057.81;4991858;28;20034;-80
2023/04/03 06:49:07;;;;;;;4.00;2.78;;;;;;;3.42;79.22;103048.84;4986650;28;20540;-80
2023/04/03 06:51:33;;;;;;;3.35;2.40;;;;;;;3.89;79.49;103059.22;4983494;28;20491;-80
2023/04/03 06:53:59;;;;;;;6.00;2.60;;;;;;;4.51;78.55;103054.06;4986615;28;20073;-80
2023/04/03 06:56:26;;;;;;;3.20;2.15;;;;;;;4.78;75.66;103056.44;4972544;28;20458;-80
2023/04/03 06:58:54;;;;;;;5.68;2.20;;;;;;;5.28;73.20;103070.16;4989110;28;20041;-81
2023/04/03 07:01:21;;;;;;;8.20;2.55;;;;;;;5.40;72.81;103067.25;4971538;28;20486;-80
2023/04/03 07:03:48;;;;;;;4.65;1.88;;;;;;;5.51;72.69;103065.31;4988644;28;20498;-81
2023/04/03 07:06:15;;;;;;;9.65;3.42;;;;;;;5.67;70.74;103065.03;4988422;28;20061;-80
2023/04/03 07:08:42;;;;;;;3.25;1.90;;;;;;;5.88;70.07;103067.41;5021525;28;20041;-81
2023/04/03 07:11:08;;;;;;;3.03;1.98;;;;;;;6.28;68.67;103058.59;4986779;28;20441;-81
2023/04/03 07:13:34;;;;;;;9.48;1.60;;;;;;;6.21;67.96;103065.06;4989361;28;20108;-80
2023/04/03 07:16:00;;;;;;;6.75;2.40;;;;;;;6.11;68.95;103067.91;4987960;28;20023;-80
2023/04/03 07:18:26;;;;;;;2.83;2.15;;;;;;;6.63;67.04;103061.50;4988347;28;20701;-80
2023/04/03 07:20:51;;;;;;;4.60;1.73;;;;;;;7.10;65.15;103073.13;4990701;28;20041;-80
2023/04/03 07:23:18;;;;;;;3.28;2.03;;;;;;;6.95;64.67;103065.34;4990321;28;20018;-80
2023/04/03 07:25:47;;;;;;;5.38;2.10;;;;;;;6.86;64.39;103070.97;4988373;28;20149;-80
2023/04/03 07:28:13;;;;;;;9.43;2.47;;;;;;;6.89;64.05;103071.75;4988649;28;20038;-80
2023/04/03 07:30:50;;;;;;;3.22;1.95;;;;;;;6.78;64.92;103086.47;4988550;28;20410;-80
2023/04/03 07:33:18;;;;;;;5.63;2.00;;;;;;;6.41;65.53;103072.78;4986823;28;20054;-80
2023/04/03 07:35:44;;;;;;;3.33;1.98;;;;;;;6.10;67.42;103079.63;4974788;28;20193;-80
2023/04/03 07:38:10;;;;;;;3.65;2.08;;;;;;;5.84;67.29;103089.97;4988731;28;20034;-80
2023/04/03 07:40:37;;;;;;;5.85;2.13;;;;;;;5.56;70.00;103089.53;4988186;28;20026;-80
2023/04/03 07:43:05;;;;;;;3.88;2.17;;;;;;;5.62;71.13;103086.72;4988202;28;20491;-80
2023/04/03 07:45:31;;;;;;;4.00;1.90;;;;;;;5.55;68.95;103096.75;5020747;28;20400;-80
2023/04/03 07:47:57;;;;;;;3.80;2.40;;;;;;;5.67;68.88;103102.84;5001890;28;20061;-80
2023/04/03 07:50:22;;;;;;;3.00;2.25;;;;;;;5.72;69.07;103096.47;4999512;28;20062;-80
2023/04/03 07:52:48;;;;;;;6.25;2.15;;;;;;;5.67;70.77;103087.53;4989345;28;20058;-80
2023/04/03 07:55:14;;;;;;;3.92;2.53;;;;;;;5.61;72.29;103088.53;4989559;28;20482;-80
2023/04/03 07:57:40;;;;;;;4.05;2.10;;;;;;;5.38;70.79;103094.28;4988923;28;20027;-80
2023/04/03 08:00:09;;;;;;;10.13;2.35;;;;;;;5.12;71.15;103091.94;4986733;28;20037;-80
2023/04/03 08:02:37;;;;;;;5.03;2.67;;;;;;;5.05;71.52;103092.06;4986529;28;20129;-80
2023/04/03 08:05:03;;;;;;;5.22;2.30;;;;;;;4.95;73.53;103085.00;4991889;28;20116;-80
2023/04/03 08:07:28;;;;;;;6.32;2.15;;;;;;;4.95;71.85;103095.78;5007127;28;20053;-80
2023/04/03 08:09:54;;;;;;;3.75;2.03;;;;;;;4.99;72.45;103089.41;5007073;28;20030;-80
2023/04/03 08:12:19;;;;;;;5.70;2.33;;;;;;;5.06;73.70;103092.03;4989595;28;20509;-81
2023/04/03 08:14:45;;;;;;;4.65;2.10;;;;;;;5.08;72.38;103097.38;4989829;28;20466;-80
2023/04/03 08:17:11;;;;;;;5.70;1.90;;;;;;;5.16;71.74;103095.50;4986823;28;20026;-80
2023/04/03 08:19:40;;;;;;;4.18;1.73;;;;;;;5.22;71.44;103097.22;5003977;28;20042;-81
2023/04/03 08:22:06;;;;;;;2.65;2.00;;;;;;;5.10;69.59;103091.06;4971681;28;20085;-80
2023/04/03 08:24:35;;;;;;;2.08;1.63;;;;;;;5.02;69.34;103092.09;4986438;28;20460;-80
2023/04/03 08:27:01;;;;;;;4.20;1.50;;;;;;;4.99;69.74;103097.50;4988792;28;20026;-80
2023/04/03 08:29:27;;;;;;;3.05;1.90;;;;;;;4.99;70.30;103100.22;4978237;28;20136;-81
2023/04/03 08:31:52;;;;;;;2.63;1.55;;;;;;;5.02;67.93;103098.38;4984483;28;20375;-80
2023/04/03 08:34:19;;;;;;;5.80;2.50;;;;;;;4.99;68.19;103102.91;4987497;28;20034;-81
2023/04/03 08:36:45;;;;;;;5.45;1.60;;;;;;;5.05;66.14;103109.13;4976010;28;20039;-80
2023/04/03 08:39:10;;;;;;;10.00;2.05;;;;;;;5.14;68.97;103105.44;4964455;28;20072;-81
2023/04/03 08:41:39;;;;;;;6.07;2.42;;;;;;;5.29;67.91;103104.31;4987767;28;20034;-81
2023/04/03 08:44:22;;;;;;;3.22;1.92;;;;;;;5.43;68.66;103109.53;4990439;28;20026;-81
2023/04/03 08:46:55;;;;;;;4.65;1.55;;;;;;;5.37;64.35;103110.50;4987426;28;20443;-80
2023/04/03 08:49:51;;;;;;;5.78;1.80;;;;;;;5.24;65.09;103117.88;4971385;28;20497;-80
2023/04/03 08:52:32;;;;;;;3.88;1.52;;;;;;;5.23;63.61;103112.50;4982642;28;20141;-81
2023/04/03 08:55:01;;;;;;;5.55;1.60;;;;;;;5.32;64.92;103109.69;4987833;28;20045;-80
2023/04/03 08:57:41;;;;;;;5.38;1.50;;;;;;;5.41;63.52;103111.31;4988376;28;20402;-80
2023/04/03 09:00:17;;;;;;;4.07;1.63;;;;;;;5.54;66.39;103105.72;4973764;28;20125;-80
2023/04/03 09:02:52;;;;;;;6.03;1.92;;;;;;;5.65;67.16;103116.38;4986840;28;20509;-81
2023/04/03 09:05:19;;;;;;;3.05;2.53;;;;;;;5.77;62.36;103116.19;4987198;28;20687;-81
2023/04/03 09:08:01;;;;;;;2.67;1.67;;;;;;;5.82;62.12;103113.41;4985825;28;20458;-80
2023/04/03 09:10:33;;;;;;;1.55;1.17;;;;;;;5.76;59.06;103111.69;4989027;28;20226;-80
2023/04/03 09:13:11;;;;;;;3.77;1.50;;;;;;;5.80;58.70;103116.13;4970061;28;20045;-81
2023/04/03 09:15:37;;;;;;;2.92;1.58;;;;;;;5.85;56.69;103119.66;4965197;28;20120;-79
2023/04/03 09:18:15;;;;;;;4.43;1.20;;;;;;;5.94;57.82;103106.94;4985467;28;20483;-81
2023/04/03 09:20:44;;;;;;;1.77;1.17;;;;;;;5.89;54.18;103123.19;4988834;28;20049;-80
2023/04/03 09:23:33;;;;;;;3.45;2.30;;;;;;;5.97;58.74;103115.00;4994390;28;20628;-80
2023/04/03 09:26:08;;;;;;;3.67;1.58;;;;;;;6.26;56.48;103122.63;5010491;28;20049;-81
2023/04/03 09:28:37;;;;;;;3.90;1.42;;;;;;;6.36;52.42;103140.44;4993018;28;20030;-80
2023/04/03 09:31:23;;;;;;;3.47;1.77;;;;;;;6.27;52.95;103133.38;5009612;28;20103;-81
2023/04/03 09:34:02;;;;;;;3.97;1.42;;;;;;;6.44;55.64;103122.28;4990389;28;20525;-80
2023/04/03 09:36:46;;;;;;;2.65;1.20;;;;;;;6.52;53.17;103131.13;4991558;28;20069;-80
2023/04/03 09:39:21;;;;;;;1.80;1.10;;;;;;;6.48;51.14;103110.50;4995128;28;20068;-81
2023/04/03 09:42:05;;;;;;;3.35;1.73;;;;;;;6.60;52.57;103103.94;5009542;28;20521;-81
2023/04/03 09:44:35;;;;;;;4.95;1.08;;;;;;;6.62;50.48;103103.00;5009072;28;20042;-81
2023/04/03 09:47:27;;;;;;;1.90;1.25;;;;;;;6.68;50.01;103110.09;4990696;28;20490;-80
2023/04/03 09:50:09;;;;;;;1.25;0.73;;;;;;;6.70;47.17;103099.25;4970385;28;20394;-80
2023/04/03 09:52:35;;;;;;;1.50;0.70;;;;;;;6.70;44.74;103105.53;4991139;28;20259;-80
2023/04/03 09:55:08;;;;;;;1.58;1.00;;;;;;;6.68;45.72;103092.97;4987327;28;20035;-81
2023/04/03 09:57:33;;;;;;;1.58;1.08;;;;;;;6.69;44.31;103082.13;4989487;28;20498;-80
2023/04/03 10:00:02;;;;;;;2.65;1.17;;;;;;;6.68;43.76;103079.47;4988615;28;20069;-80
2023/04/03 10:02:42;;;;;;;2.42;1.05;;;;;;;6.76;44.12;103089.19;4987477;28;20116;-80
2023/04/03 10:05:46;;;;;;;1.20;0.90;;;;;;;6.82;46.97;103083.66;4975559;28;20040;-80
2023/04/03 10:08:15;;;;;;;4.13;1.50;;;;;;;6.89;44.64;103081.69;4988825;28;20550;-81
2023/04/03 10:10:46;;;;;;;2.00;0.80;;;;;;;7.03;46.14;103082.28;4995043;28;20038;-81
2023/04/03 10:13:16;;;;;;;1.50;0.93;;;;;;;7.00;43.05;103084.19;4990040;28;20081;-80
2023/04/03 10:15:52;;;;;;;1.30;0.90;;;;;;;6.94;42.66;103079.78;4986838;28;20038;-80
2023/04/03 10:18:29;;;;;;;1.95;1.00;;;;;;;6.93;43.03;103085.25;4989326;28;20067;-80
2023/04/03 10:21:02;;;;;;;1.88;1.13;;;;;;;6.96;45.18;103077.06;4991435;28;20050;-80
2023/04/03 10:23:37;;;;;;;1.17;0.90;;;;;;;6.95;44.16;103083.38;4973376;28;20433;-81
2023/04/03 10:26:14;;;;;;;1.48;0.82;;;;;;;7.03;44.98;103078.69;4988101;28;20429;-81
2023/04/03 10:28:39;;;;;;;2.80;1.20;;;;;;;7.09;43.44;103071.34;4963952;28;20489;-80
2023/04/03 10:31:16;;;;;;;1.48;0.82;;;;;;;7.26;45.47;103046.59;4989652;28;20030;-81
2023/04/03 10:33:56;;;;;;;1.58;0.98;;;;;;;7.40;43.12;103048.97;4972757;28;20516;-81
2023/04/03 10:36:25;;;;;;;3.28;1.20;;;;;;;7.47;46.20;103047.91;4989207;28;20100;-81
2023/04/03 10:38:55;;;;;;;1.67;0.98;;;;;;;7.58;46.90;103045.81;4991866;28;20049;-81
2023/04/03 10:41:27;;;;;;;1.58;0.80;;;;;;;7.56;40.33;103042.28;4995148;28;20045;-80
2023/04/03 10:44:28;;;;;;;1.10;0.90;;;;;;;7.49;43.34;103037.03;4988440;28;20034;-80
2023/04/03 10:47:07;;;;;;;1.65;1.20;;;;;;;7.76;44.32;103030.94;4969464;28;20053;-81
2023/04/03 10:49:50;;;;;;;1.25;0.73;;;;;;;7.91;43.13;103032.34;4989184;28;20066;-80
2023/04/03 10:52:21;;;;;;;1.20;1.00;;;;;;;8.07;44.94;103019.31;4983063;28;20054;-80
2023/04/03 10:54:55;;;;;;;1.25;0.80;;;;;;;8.19;43.03;103032.50;4970855;28;20178;-81
2023/04/03 10:57:24;;;;;;;2.22;1.00;;;;;;;8.02;38.34;103027.56;4969008;28;20487;-81
2023/04/03 10:59:54;;;;;;;0.80;0.80;;;;;;;7.83;39.07;103028.94;4956900;28;20272;-80
2023/04/03 11:02:38;;;;;;;1.77;1.38;;;;;;;7.90;41.76;103017.91;4971753;28;20034;-81
2023/04/03 11:05:18;;;;;;;1.45;1.00;;;;;;;8.02;40.20;103023.94;4988370;28;20424;-80
2023/04/03 11:07:50;;;;;;;1.52;0.90;;;;;;;7.96;39.17;103008.72;4988133;28;20100;-80
2023/04/03 11:10:24;;;;;;;3.33;0.80;;;;;;;8.23;40.99;103017.03;4988438;28;20064;-81
2023/04/03 11:12:56;;;;;;;3.13;1.08;;;;;;;8.54;40.65;103008.97;4989296;28;20042;-80
2023/04/03 11:15:23;;;;;;;1.00;0.90;;;;;;;8.49;38.03;103017.25;4983506;28;20180;-81
2023/04/03 11:17:55;;;;;;;3.65;1.05;;;;;;;8.33;39.40;103019.44;4984731;28;20513;-81
2023/04/03 11:20:33;;;;;;;1.20;1.05;;;;;;;8.32;39.93;103016.78;4991477;28;20035;-81
2023/04/03 11:23:21;;;;;;;1.08;0.85;;;;;;;8.52;42.86;103011.72;4987800;28;20053;-80
2023/04/03 11:25:52;;;;;;;3.97;1.10;;;;;;;8.63;41.86;103006.88;4992023;28;20034;-81
2023/04/03 11:28:17;;;;;;;2.25;1.00;;;;;;;8.65;39.61;103009.53;4997063;28;20449;-80
2023/04/03 11:30:46;;;;;;;1.67;1.20;;;;;;;8.64;42.52;103005.03;4990138;28;20026;-80
2023/04/03 11:33:43;;;;;;;1.15;1.02;;;;;;;8.67;42.57;103000.44;4991326;28;20100;-80